createdAt,value
2019-03-01T00:00:21.843Z,0
2019-03-01T00:01:24.682Z,0
2019-03-01T00:02:27.514Z,0
2019-03-01T00:03:29.631Z,0
2019-03-01T00:04:32.463Z,0
2019-03-01T00:05:34.877Z,0
2019-03-01T00:06:36.997Z,0
2019-03-01T00:07:39.106Z,0
2019-03-01T00:08:41.231Z,0
2019-03-01T00:09:43.738Z,0
2019-03-01T00:10:46.162Z,0
2019-03-01T00:11:48.581Z,0
2019-03-01T00:12:51.123Z,0
2019-03-01T00:13:53.920Z,0
2019-03-01T00:14:56.351Z,0
2019-03-01T00:15:58.467Z,0
2019-03-01T00:17:00.581Z,0
2019-03-01T00:18:02.717Z,0
2019-03-01T00:19:04.848Z,0
2019-03-01T00:20:07.377Z,0
2019-03-01T00:21:09.508Z,0
2019-03-01T00:22:11.621Z,0
2019-03-01T00:23:14.169Z,0
2019-03-01T00:24:16.309Z,0
2019-03-01T00:25:18.974Z,0
2019-03-01T00:26:21.108Z,0
2019-03-01T00:27:23.225Z,0
2019-03-01T00:28:25.354Z,0
2019-03-01T00:29:27.472Z,0
2019-03-01T00:30:29.598Z,0
2019-03-01T00:31:31.711Z,0
2019-03-01T00:32:34.115Z,0
2019-03-01T00:33:36.241Z,0
2019-03-01T00:34:38.344Z,0
2019-03-01T00:35:40.460Z,0
2019-03-01T00:36:42.568Z,0
2019-03-01T00:37:44.703Z,0
2019-03-01T00:38:47.769Z,0
2019-03-01T00:39:49.951Z,0
2019-03-01T00:40:52.077Z,0
2019-03-01T00:41:54.542Z,0
2019-03-01T00:42:57.046Z,0
2019-03-01T00:43:59.550Z,0
2019-03-01T00:45:01.999Z,0
2019-03-01T00:46:04.432Z,0
2019-03-01T00:47:06.839Z,0
2019-03-01T00:48:09.265Z,0
2019-03-01T00:49:11.653Z,0
2019-03-01T00:50:13.777Z,0
2019-03-01T00:51:15.918Z,0
2019-03-01T00:52:18.734Z,0
2019-03-01T00:53:20.844Z,0
2019-03-01T00:54:23.259Z,0
2019-03-01T00:55:25.379Z,0
2019-03-01T00:56:27.799Z,0
2019-03-01T00:57:30.208Z,0
2019-03-01T00:58:32.701Z,0
2019-03-01T00:59:34.824Z,0
2019-03-01T01:00:36.953Z,0
2019-03-01T01:01:39.107Z,0
2019-03-01T01:02:41.235Z,0
2019-03-01T01:03:43.655Z,0
2019-03-01T01:04:45.771Z,0
2019-03-01T01:05:47.878Z,0
2019-03-01T01:06:50.311Z,0
2019-03-01T01:07:53.095Z,0
2019-03-01T01:08:55.212Z,0
2019-03-01T01:09:57.324Z,0
2019-03-01T01:10:59.452Z,0
2019-03-01T01:12:01.857Z,0
2019-03-01T01:13:04.325Z,0
2019-03-01T01:14:06.445Z,0
2019-03-01T01:15:08.608Z,0
2019-03-01T01:16:10.735Z,0
2019-03-01T01:17:13.145Z,0
2019-03-01T01:18:15.272Z,0
2019-03-01T01:19:17.422Z,0
2019-03-01T01:20:19.545Z,0
2019-03-01T01:21:21.660Z,0
2019-03-01T01:22:23.796Z,0
2019-03-01T01:23:25.914Z,0
2019-03-01T01:24:28.038Z,0
2019-03-01T01:25:30.456Z,0
2019-03-01T01:26:32.858Z,0
2019-03-01T01:27:35.298Z,0
2019-03-01T01:28:37.407Z,0
2019-03-01T01:29:39.535Z,0
2019-03-01T01:30:41.651Z,0
2019-03-01T01:31:43.796Z,0
2019-03-01T01:32:45.929Z,0
2019-03-01T01:33:48.050Z,0
2019-03-01T01:34:50.575Z,0
2019-03-01T01:35:52.675Z,0
2019-03-01T01:36:54.805Z,0
2019-03-01T01:37:56.915Z,0
2019-03-01T01:38:59.019Z,0
2019-03-01T01:40:01.528Z,0
2019-03-01T01:41:03.938Z,0
2019-03-01T01:42:06.046Z,0
2019-03-01T01:43:08.440Z,0
2019-03-01T01:44:10.575Z,0
2019-03-01T01:45:13.371Z,0
2019-03-01T01:46:15.504Z,0
2019-03-01T01:47:17.677Z,0
2019-03-01T01:48:20.090Z,0
2019-03-01T01:49:22.222Z,0
2019-03-01T01:50:24.774Z,0
2019-03-01T01:51:27.219Z,0
2019-03-01T01:52:29.637Z,0
2019-03-01T01:53:32.047Z,0
2019-03-01T01:54:35.145Z,0
2019-03-01T01:55:37.669Z,0
2019-03-01T01:56:40.481Z,0
2019-03-01T01:57:42.590Z,0
2019-03-01T01:58:44.753Z,0
2019-03-01T01:59:47.172Z,0
2019-03-01T02:00:49.604Z,0
2019-03-01T02:01:51.739Z,0
2019-03-01T02:02:53.860Z,0
2019-03-01T02:03:55.970Z,0
2019-03-01T02:04:58.498Z,0
2019-03-01T02:06:00.887Z,0
2019-03-01T02:07:03.395Z,0
2019-03-01T02:08:06.204Z,0
2019-03-01T02:09:08.727Z,0
2019-03-01T02:10:10.850Z,0
2019-03-01T02:11:13.261Z,0
2019-03-01T02:12:15.390Z,0
2019-03-01T02:13:17.486Z,0
2019-03-01T02:14:19.611Z,0
2019-03-01T02:15:21.730Z,0
2019-03-01T02:16:23.859Z,0
2019-03-01T02:17:26.244Z,0
2019-03-01T02:18:28.365Z,0
2019-03-01T02:19:30.468Z,0
2019-03-01T02:20:32.586Z,0
2019-03-01T02:21:34.712Z,0
2019-03-01T02:22:37.215Z,0
2019-03-01T02:23:41.467Z,0
2019-03-01T02:24:43.673Z,0
2019-03-01T02:25:45.802Z,0
2019-03-01T02:26:47.906Z,0
2019-03-01T02:27:50.026Z,0
2019-03-01T02:28:52.134Z,0
2019-03-01T02:29:54.556Z,0
2019-03-01T02:30:56.995Z,0
2019-03-01T02:31:59.867Z,0
2019-03-01T02:33:03.279Z,0
2019-03-01T02:34:05.426Z,0
2019-03-01T02:35:08.227Z,0
2019-03-01T02:36:11.767Z,0
2019-03-01T02:37:13.906Z,0
2019-03-01T02:38:16.356Z,0
2019-03-01T02:39:18.919Z,0
2019-03-01T02:40:21.487Z,0
2019-03-01T02:41:24.009Z,0
2019-03-01T02:42:26.470Z,0
2019-03-01T02:43:28.931Z,0
2019-03-01T02:44:31.141Z,0
2019-03-01T02:45:33.567Z,0
2019-03-01T02:46:35.714Z,0
2019-03-01T02:47:37.861Z,0
2019-03-01T02:48:40.295Z,0
2019-03-01T02:49:42.892Z,0
2019-03-01T02:50:45.014Z,0
2019-03-01T02:51:47.577Z,0
2019-03-01T02:52:50.715Z,0
2019-03-01T02:53:52.844Z,0
2019-03-01T02:54:54.991Z,0
2019-03-01T02:55:57.098Z,0
2019-03-01T02:56:59.894Z,0
2019-03-01T02:58:02.648Z,0
2019-03-01T02:59:04.792Z,0
2019-03-01T03:00:06.916Z,0
2019-03-01T03:01:09.341Z,0
2019-03-01T03:02:11.456Z,0
2019-03-01T03:03:13.614Z,0
2019-03-01T03:04:16.091Z,0
2019-03-01T03:05:18.520Z,0
2019-03-01T03:06:20.663Z,0
2019-03-01T03:07:23.530Z,0
2019-03-01T03:08:26.284Z,0
2019-03-01T03:09:29.289Z,0
2019-03-01T03:10:32.411Z,0
2019-03-01T03:11:34.533Z,0
2019-03-01T03:12:36.979Z,0
2019-03-01T03:13:39.709Z,0
2019-03-01T03:14:42.159Z,0
2019-03-01T03:15:44.713Z,0
2019-03-01T03:16:47.290Z,0
2019-03-01T03:17:50.113Z,0
2019-03-01T03:18:52.257Z,0
2019-03-01T03:19:55.053Z,0
2019-03-01T03:20:57.982Z,0
2019-03-01T03:22:01.089Z,0
2019-03-01T03:23:03.970Z,0
2019-03-01T03:24:06.477Z,0
2019-03-01T03:25:09.238Z,0
2019-03-01T03:26:11.388Z,0
2019-03-01T03:27:13.793Z,0
2019-03-01T03:28:16.888Z,0
2019-03-01T03:29:19.284Z,0
2019-03-01T03:30:21.931Z,0
2019-03-01T03:31:24.503Z,0
2019-03-01T03:32:27.455Z,0
2019-03-01T03:33:30.258Z,0
2019-03-01T03:34:32.880Z,0
2019-03-01T03:35:35.391Z,0
2019-03-01T03:36:38.119Z,0
2019-03-01T03:37:40.566Z,0
2019-03-01T03:38:42.684Z,0
2019-03-01T03:39:45.357Z,0
2019-03-01T03:40:48.281Z,0
2019-03-01T03:41:50.416Z,0
2019-03-01T03:42:52.539Z,0
2019-03-01T03:43:55.359Z,0
2019-03-01T03:44:57.479Z,0
2019-03-01T03:45:59.915Z,0
2019-03-01T03:47:02.338Z,0
2019-03-01T03:48:04.909Z,0
2019-03-01T03:49:07.312Z,0
2019-03-01T03:50:09.807Z,0
2019-03-01T03:51:12.439Z,0
2019-03-01T03:52:15.173Z,0
2019-03-01T03:53:17.302Z,0
2019-03-01T03:54:19.738Z,0
2019-03-01T03:55:22.837Z,0
2019-03-01T03:56:25.372Z,0
2019-03-01T03:57:28.149Z,0
2019-03-01T03:58:30.588Z,0
2019-03-01T03:59:33.420Z,0
2019-03-01T04:00:35.550Z,0
2019-03-01T04:01:37.985Z,0
2019-03-01T04:02:40.525Z,0
2019-03-01T04:03:43.047Z,0
2019-03-01T04:04:45.183Z,0
2019-03-01T04:05:47.595Z,0
2019-03-01T04:06:50.773Z,0
2019-03-01T04:07:52.909Z,0
2019-03-01T04:08:55.706Z,0
2019-03-01T04:09:58.580Z,0
2019-03-01T04:11:01.398Z,0
2019-03-01T04:12:04.793Z,0
2019-03-01T04:13:06.918Z,0
2019-03-01T04:14:09.377Z,0
2019-03-01T04:15:11.820Z,0
2019-03-01T04:16:14.250Z,0
2019-03-01T04:17:17.068Z,0
2019-03-01T04:18:20.309Z,0
2019-03-01T04:19:22.755Z,0
2019-03-01T04:20:25.320Z,0
2019-03-01T04:21:27.764Z,0
2019-03-01T04:22:30.166Z,0
2019-03-01T04:23:32.715Z,0
2019-03-01T04:24:35.401Z,0
2019-03-01T04:25:37.526Z,0
2019-03-01T04:26:39.974Z,0
2019-03-01T04:27:42.821Z,0
2019-03-01T04:28:44.953Z,0
2019-03-01T04:29:47.118Z,0
2019-03-01T04:30:49.555Z,0
2019-03-01T04:31:52.349Z,0
2019-03-01T04:32:55.152Z,0
2019-03-01T04:33:57.305Z,0
2019-03-01T04:35:00.014Z,0
2019-03-01T04:36:02.178Z,0
2019-03-01T04:37:04.318Z,0
2019-03-01T04:38:06.819Z,0
2019-03-01T04:39:08.937Z,0
2019-03-01T04:40:11.063Z,0
2019-03-01T04:41:13.173Z,0
2019-03-01T04:42:15.302Z,0
2019-03-01T04:43:17.420Z,0
2019-03-01T04:44:19.538Z,0
2019-03-01T04:45:21.657Z,0
2019-03-01T04:46:24.173Z,0
2019-03-01T04:47:26.561Z,0
2019-03-01T04:48:29.400Z,0
2019-03-01T04:49:31.630Z,0
2019-03-01T04:50:34.034Z,0
2019-03-01T04:51:41.877Z,0
2019-03-01T04:52:43.999Z,0
2019-03-01T04:53:46.173Z,0
2019-03-01T04:54:48.286Z,0
2019-03-01T04:55:50.419Z,0
2019-03-01T04:56:52.530Z,0
2019-03-01T04:57:55.052Z,0
2019-03-01T04:58:57.173Z,0
2019-03-01T04:59:59.665Z,0
2019-03-01T05:01:01.793Z,0
2019-03-01T05:02:04.209Z,0
2019-03-01T05:03:06.330Z,0
2019-03-01T05:04:08.448Z,0
2019-03-01T05:05:11.170Z,0
2019-03-01T05:06:13.288Z,0
2019-03-01T05:07:15.402Z,0
2019-03-01T05:08:17.838Z,0
2019-03-01T05:09:20.267Z,0
2019-03-01T05:10:23.122Z,0
2019-03-01T05:11:25.225Z,0
2019-03-01T05:12:27.340Z,0
2019-03-01T05:13:29.462Z,0
2019-03-01T05:14:31.572Z,0
2019-03-01T05:15:34.015Z,0
2019-03-01T05:16:36.132Z,0
2019-03-01T05:17:38.534Z,0
2019-03-01T05:18:40.655Z,0
2019-03-01T05:19:42.781Z,0
2019-03-01T05:20:45.209Z,0
2019-03-01T05:21:47.342Z,0
2019-03-01T05:22:49.785Z,0
2019-03-01T05:23:51.891Z,0
2019-03-01T05:24:54.304Z,0
2019-03-01T05:25:56.420Z,0
2019-03-01T05:26:58.537Z,0
2019-03-01T05:28:00.654Z,0
2019-03-01T05:29:03.851Z,0
2019-03-01T05:30:06.243Z,0
2019-03-01T05:31:08.361Z,0
2019-03-01T05:32:10.487Z,0
2019-03-01T05:33:12.582Z,0
2019-03-01T05:34:14.993Z,0
2019-03-01T05:35:17.520Z,0
2019-03-01T05:36:19.646Z,0
2019-03-01T05:37:22.029Z,0
2019-03-01T05:38:24.150Z,0
2019-03-01T05:39:26.372Z,0
2019-03-01T05:40:28.794Z,0
2019-03-01T05:41:31.354Z,0
2019-03-01T05:42:33.460Z,0
2019-03-01T05:43:35.877Z,0
2019-03-01T05:44:38.018Z,0
2019-03-01T05:45:40.132Z,0
2019-03-01T05:46:42.247Z,0
2019-03-01T05:47:44.784Z,0
2019-03-01T05:48:46.908Z,0
2019-03-01T05:49:49.026Z,0
2019-03-01T05:50:51.824Z,0
2019-03-01T05:51:53.942Z,0
2019-03-01T05:52:56.074Z,0
2019-03-01T05:53:58.173Z,0
2019-03-01T05:55:00.438Z,0
2019-03-01T05:56:02.565Z,0
2019-03-01T05:57:04.665Z,0
2019-03-01T05:58:17.456Z,0
2019-03-01T05:59:19.573Z,0
2019-03-01T06:00:21.688Z,0
2019-03-01T06:01:23.866Z,0
2019-03-01T06:02:25.997Z,0
2019-03-01T06:03:28.494Z,0
2019-03-01T06:04:30.611Z,0
2019-03-01T06:05:32.740Z,0
2019-03-01T06:06:35.458Z,0
2019-03-01T06:07:37.969Z,0
2019-03-01T06:08:40.089Z,0
2019-03-01T06:09:42.221Z,0
2019-03-01T06:10:44.638Z,1
2019-03-01T06:11:46.769Z,1
2019-03-01T06:12:48.874Z,1
2019-03-01T06:13:51.280Z,1
2019-03-01T06:14:53.408Z,1
2019-03-01T06:15:55.525Z,1
2019-03-01T06:16:58.224Z,1
2019-03-01T06:18:00.356Z,1
2019-03-01T06:19:02.861Z,1
2019-03-01T06:20:05.644Z,1
2019-03-01T06:21:08.162Z,1
2019-03-01T06:22:10.849Z,1
2019-03-01T06:23:12.957Z,1
2019-03-01T06:24:15.363Z,1
2019-03-01T06:25:18.163Z,1
2019-03-01T06:26:20.636Z,1
2019-03-01T06:27:22.740Z,1
2019-03-01T06:28:25.143Z,2
2019-03-01T06:29:27.269Z,2
2019-03-01T06:30:29.381Z,2
2019-03-01T06:31:31.510Z,2
2019-03-01T06:32:33.629Z,2
2019-03-01T06:33:36.049Z,2
2019-03-01T06:34:38.161Z,2
2019-03-01T06:35:40.306Z,2
2019-03-01T06:36:42.413Z,2
2019-03-01T06:37:44.526Z,2
2019-03-01T06:38:47.042Z,2
2019-03-01T06:39:49.143Z,2
2019-03-01T06:40:51.380Z,2
2019-03-01T06:41:54.381Z,2
2019-03-01T06:42:56.510Z,2
2019-03-01T06:43:58.614Z,2
2019-03-01T06:45:01.539Z,3
2019-03-01T06:46:04.372Z,3
2019-03-01T06:47:06.779Z,3
2019-03-01T06:48:08.913Z,3
2019-03-01T06:49:11.044Z,3
2019-03-01T06:50:14.460Z,4
2019-03-01T06:51:16.592Z,4
2019-03-01T06:52:18.706Z,4
2019-03-01T06:53:20.815Z,3
2019-03-01T06:54:22.933Z,4
2019-03-01T06:55:25.434Z,3
2019-03-01T06:56:27.595Z,3
2019-03-01T06:57:29.730Z,3
2019-03-01T06:58:31.845Z,3
2019-03-01T06:59:33.953Z,4
2019-03-01T07:00:36.678Z,4
2019-03-01T07:01:38.792Z,4
2019-03-01T07:02:41.202Z,4
2019-03-01T07:03:43.610Z,5
2019-03-01T07:04:45.713Z,6
2019-03-01T07:05:48.117Z,6
2019-03-01T07:06:50.257Z,6
2019-03-01T07:07:52.389Z,6
2019-03-01T07:08:54.900Z,6
2019-03-01T07:09:57.024Z,6
2019-03-01T07:10:59.147Z,6
2019-03-01T07:12:01.538Z,6
2019-03-01T07:13:03.993Z,6
2019-03-01T07:14:06.099Z,7
2019-03-01T07:15:10.106Z,6
2019-03-01T07:16:12.619Z,6
2019-03-01T07:17:15.047Z,6
2019-03-01T07:18:17.153Z,6
2019-03-01T07:19:19.318Z,7
2019-03-01T07:20:22.121Z,7
2019-03-01T07:21:24.547Z,7
2019-03-01T07:22:26.676Z,7
2019-03-01T07:23:38.609Z,6
2019-03-01T07:24:40.737Z,6
2019-03-01T07:25:43.881Z,6
2019-03-01T07:26:46.309Z,6
2019-03-01T07:27:48.430Z,7
2019-03-01T07:28:50.580Z,7
2019-03-01T07:29:52.698Z,7
2019-03-01T07:30:54.809Z,6
2019-03-01T07:31:57.216Z,7
2019-03-01T07:32:59.346Z,6
2019-03-01T07:34:02.030Z,6
2019-03-01T07:35:04.570Z,7
2019-03-01T07:36:06.690Z,7
2019-03-01T07:37:08.800Z,8
2019-03-01T07:38:11.245Z,8
2019-03-01T07:39:13.371Z,9
2019-03-01T07:40:15.778Z,10
2019-03-01T07:41:17.924Z,10
2019-03-01T07:42:20.044Z,11
2019-03-01T07:43:22.168Z,11
2019-03-01T07:44:24.295Z,11
2019-03-01T07:45:26.705Z,11
2019-03-01T07:46:29.123Z,12
2019-03-01T07:47:31.527Z,12
2019-03-01T07:48:33.930Z,12
2019-03-01T07:49:36.043Z,12
2019-03-01T07:50:38.181Z,12
2019-03-01T07:51:40.287Z,12
2019-03-01T07:52:42.722Z,12
2019-03-01T07:53:44.851Z,12
2019-03-01T07:54:54.248Z,12
2019-03-01T07:55:56.400Z,13
2019-03-01T07:56:58.848Z,12
2019-03-01T07:58:01.638Z,11
2019-03-01T07:59:03.766Z,10
2019-03-01T08:00:06.184Z,10
2019-03-01T08:01:08.685Z,10
2019-03-01T08:02:11.109Z,10
2019-03-01T08:03:17.080Z,8
2019-03-01T08:04:19.188Z,9
2019-03-01T08:05:21.308Z,8
2019-03-01T08:06:23.436Z,10
2019-03-01T08:07:26.279Z,10
2019-03-01T08:08:28.723Z,9
2019-03-01T08:09:30.842Z,11
2019-03-01T08:10:32.953Z,12
2019-03-01T08:11:35.391Z,12
2019-03-01T08:12:44.607Z,11
2019-03-01T08:13:54.309Z,9
2019-03-01T08:14:56.424Z,8
2019-03-01T08:15:58.560Z,10
2019-03-01T08:17:00.669Z,11
2019-03-01T08:18:10.271Z,11
2019-03-01T08:19:23.723Z,11
2019-03-01T08:20:26.138Z,10
2019-03-01T08:21:28.565Z,10
2019-03-01T08:22:30.983Z,10
2019-03-01T08:23:37.142Z,10
2019-03-01T08:24:39.277Z,10
2019-03-01T08:25:41.424Z,11
2019-03-01T08:26:43.577Z,11
2019-03-01T08:27:51.624Z,12
2019-03-01T08:29:01.203Z,12
2019-03-01T08:30:10.299Z,13
2019-03-01T08:31:13.613Z,12
2019-03-01T08:32:16.049Z,11
2019-03-01T08:33:18.166Z,12
2019-03-01T08:34:20.288Z,13
2019-03-01T08:35:28.166Z,13
2019-03-01T08:36:31.481Z,13
2019-03-01T08:37:33.598Z,13
2019-03-01T08:38:35.752Z,14
2019-03-01T08:39:41.904Z,16
2019-03-01T08:40:51.087Z,17
2019-03-01T08:41:53.822Z,18
2019-03-01T08:42:56.611Z,18
2019-03-01T08:43:58.732Z,18
2019-03-01T08:45:01.342Z,20
2019-03-01T08:46:11.432Z,21
2019-03-01T08:47:13.558Z,21
2019-03-01T08:48:15.960Z,22
2019-03-01T08:49:18.101Z,23
2019-03-01T08:50:20.215Z,24
2019-03-01T08:51:28.547Z,25
2019-03-01T08:52:30.682Z,26
2019-03-01T08:53:32.783Z,27
2019-03-01T08:54:34.917Z,29
2019-03-01T08:55:40.977Z,32
2019-03-01T08:56:51.497Z,37
2019-03-01T08:57:53.720Z,42
2019-03-01T08:58:55.850Z,44
2019-03-01T08:59:57.963Z,40
2019-03-01T09:01:10.873Z,34
2019-03-01T09:02:13.346Z,31
2019-03-01T09:03:24.114Z,30
2019-03-01T09:04:26.217Z,29
2019-03-01T09:05:28.626Z,28
2019-03-01T09:06:31.140Z,29
2019-03-01T09:07:33.257Z,32
2019-03-01T09:08:35.655Z,30
2019-03-01T09:09:37.783Z,28
2019-03-01T09:10:40.205Z,28
2019-03-01T09:11:46.433Z,29
2019-03-01T09:12:48.569Z,28
2019-03-01T09:13:50.708Z,27
2019-03-01T09:14:53.108Z,26
2019-03-01T09:15:55.245Z,24
2019-03-01T09:16:57.668Z,23
2019-03-01T09:17:59.790Z,22
2019-03-01T09:19:02.320Z,22
2019-03-01T09:20:04.430Z,22
2019-03-01T09:21:15.006Z,21
2019-03-01T09:22:17.151Z,22
2019-03-01T09:23:28.526Z,23
2019-03-01T09:24:31.608Z,24
2019-03-01T09:25:33.742Z,24
2019-03-01T09:26:37.037Z,25
2019-03-01T09:27:39.211Z,28
2019-03-01T09:28:41.647Z,27
2019-03-01T09:29:44.041Z,24
2019-03-01T09:30:46.156Z,24
2019-03-01T09:31:48.263Z,24
2019-03-01T09:32:50.405Z,26
2019-03-01T09:33:58.472Z,26
2019-03-01T09:35:08.980Z,27
2019-03-01T09:36:14.325Z,28
2019-03-01T09:37:16.662Z,27
2019-03-01T09:38:19.085Z,26
2019-03-01T09:39:21.211Z,25
2019-03-01T09:40:31.021Z,25
2019-03-01T09:41:33.134Z,27
2019-03-01T09:42:35.674Z,29
2019-03-01T09:43:37.797Z,33
2019-03-01T09:44:41.051Z,38
2019-03-01T09:45:49.985Z,38
2019-03-01T09:46:52.099Z,36
2019-03-01T09:47:54.501Z,35
2019-03-01T09:48:56.634Z,34
2019-03-01T09:50:02.368Z,33
2019-03-01T09:51:11.802Z,33
2019-03-01T09:52:13.922Z,33
2019-03-01T09:53:16.027Z,32
2019-03-01T09:54:18.454Z,30
2019-03-01T09:55:20.562Z,29
2019-03-01T09:56:25.102Z,30
2019-03-01T09:57:27.217Z,38
2019-03-01T09:58:29.358Z,42
2019-03-01T09:59:31.759Z,44
2019-03-01T10:00:33.900Z,45
2019-03-01T10:01:36.030Z,46
2019-03-01T10:02:38.190Z,52
2019-03-01T10:03:40.322Z,58
2019-03-01T10:04:42.466Z,56
2019-03-01T10:05:44.614Z,55
2019-03-01T10:06:46.710Z,59
2019-03-01T10:07:48.862Z,56
2019-03-01T10:08:51.358Z,54
2019-03-01T10:09:53.467Z,49
2019-03-01T10:10:56.012Z,49
2019-03-01T10:11:58.125Z,44
2019-03-01T10:13:00.255Z,40
2019-03-01T10:14:02.408Z,45
2019-03-01T10:15:04.533Z,47
2019-03-01T10:16:06.650Z,45
2019-03-01T10:17:09.170Z,43
2019-03-01T10:18:11.314Z,42
2019-03-01T10:19:14.402Z,41
2019-03-01T10:20:16.793Z,40
2019-03-01T10:21:18.918Z,39
2019-03-01T10:22:21.052Z,36
2019-03-01T10:23:23.546Z,34
2019-03-01T10:24:25.676Z,30
2019-03-01T10:25:27.800Z,25
2019-03-01T10:26:29.907Z,23
2019-03-01T10:27:32.038Z,24
2019-03-01T10:28:34.152Z,24
2019-03-01T10:29:36.265Z,26
2019-03-01T10:30:38.376Z,28
2019-03-01T10:31:40.813Z,30
2019-03-01T10:32:42.919Z,32
2019-03-01T10:33:45.037Z,32
2019-03-01T10:34:47.167Z,31
2019-03-01T10:35:49.660Z,32
2019-03-01T10:36:51.797Z,31
2019-03-01T10:37:55.699Z,28
2019-03-01T10:38:58.106Z,27
2019-03-01T10:40:00.299Z,29
2019-03-01T10:41:02.447Z,30
2019-03-01T10:42:04.556Z,30
2019-03-01T10:43:06.665Z,28
2019-03-01T10:44:08.792Z,27
2019-03-01T10:45:10.903Z,28
2019-03-01T10:46:13.018Z,29
2019-03-01T10:47:15.160Z,30
2019-03-01T10:48:17.289Z,31
2019-03-01T10:49:19.395Z,33
2019-03-01T10:50:21.809Z,33
2019-03-01T10:51:24.211Z,33
2019-03-01T10:52:26.404Z,33
2019-03-01T10:53:28.572Z,34
2019-03-01T10:54:30.692Z,34
2019-03-01T10:55:32.815Z,36
2019-03-01T10:56:35.200Z,37
2019-03-01T10:57:37.359Z,38
2019-03-01T10:58:39.479Z,38
2019-03-01T10:59:41.646Z,37
2019-03-01T11:00:43.781Z,37
2019-03-01T11:01:45.901Z,37
2019-03-01T11:02:48.401Z,36
2019-03-01T11:03:50.503Z,36
2019-03-01T11:04:52.655Z,36
2019-03-01T11:05:54.769Z,37
2019-03-01T11:06:56.929Z,37
2019-03-01T11:07:59.069Z,37
2019-03-01T11:09:01.190Z,36
2019-03-01T11:10:03.602Z,35
2019-03-01T11:11:05.718Z,34
2019-03-01T11:12:08.335Z,33
2019-03-01T11:13:10.439Z,33
2019-03-01T11:14:12.643Z,34
2019-03-01T11:15:14.784Z,34
2019-03-01T11:16:16.979Z,35
2019-03-01T11:17:19.116Z,36
2019-03-01T11:18:21.220Z,37
2019-03-01T11:19:23.351Z,37
2019-03-01T11:20:25.488Z,37
2019-03-01T11:21:27.636Z,36
2019-03-01T11:22:29.760Z,34
2019-03-01T11:23:31.918Z,33
2019-03-01T11:24:34.024Z,31
2019-03-01T11:25:36.138Z,31
2019-03-01T11:26:38.296Z,33
2019-03-01T11:27:40.414Z,33
2019-03-01T11:28:42.579Z,33
2019-03-01T11:29:45.010Z,34
2019-03-01T11:30:47.166Z,36
2019-03-01T11:31:49.976Z,36
2019-03-01T11:32:52.385Z,36
2019-03-01T11:33:54.520Z,35
2019-03-01T11:34:56.663Z,36
2019-03-01T11:35:58.781Z,37
2019-03-01T11:37:01.337Z,37
2019-03-01T11:38:03.472Z,37
2019-03-01T11:39:05.581Z,36
2019-03-01T11:40:07.763Z,35
2019-03-01T11:41:09.902Z,35
2019-03-01T11:42:12.045Z,34
2019-03-01T11:43:14.187Z,33
2019-03-01T11:44:16.345Z,33
2019-03-01T11:45:18.472Z,32
2019-03-01T11:46:20.584Z,32
2019-03-01T11:47:22.758Z,32
2019-03-01T11:48:25.550Z,32
2019-03-01T11:49:27.813Z,32
2019-03-01T11:50:29.970Z,30
2019-03-01T11:51:32.438Z,30
2019-03-01T11:52:34.559Z,30
2019-03-01T11:53:36.951Z,31
2019-03-01T11:54:39.362Z,33
2019-03-01T11:55:41.932Z,34
2019-03-01T11:56:44.070Z,33
2019-03-01T11:57:46.193Z,33
2019-03-01T11:58:48.618Z,34
2019-03-01T11:59:50.762Z,34
2019-03-01T12:00:54.058Z,34
2019-03-01T12:01:56.168Z,34
2019-03-01T12:02:58.314Z,34
2019-03-01T12:04:00.444Z,35
2019-03-01T12:05:02.853Z,34
2019-03-01T12:06:05.408Z,32
2019-03-01T12:07:08.188Z,30
2019-03-01T12:08:10.600Z,29
2019-03-01T12:09:12.715Z,29
2019-03-01T12:10:14.849Z,28
2019-03-01T12:11:16.958Z,28
2019-03-01T12:12:19.365Z,29
2019-03-01T12:13:21.479Z,29
2019-03-01T12:14:23.771Z,29
2019-03-01T12:15:25.911Z,28
2019-03-01T12:16:28.075Z,28
2019-03-01T12:17:30.187Z,28
2019-03-01T12:18:32.294Z,28
2019-03-01T12:19:34.428Z,31
2019-03-01T12:20:36.817Z,35
2019-03-01T12:21:38.945Z,36
2019-03-01T12:22:41.081Z,36
2019-03-01T12:23:43.185Z,36
2019-03-01T12:24:45.325Z,35
2019-03-01T12:25:47.454Z,35
2019-03-01T12:26:49.558Z,35
2019-03-01T12:27:51.729Z,35
2019-03-01T12:28:53.896Z,35
2019-03-01T12:29:56.023Z,35
2019-03-01T12:30:58.714Z,35
2019-03-01T12:32:01.216Z,34
2019-03-01T12:33:03.318Z,33
2019-03-01T12:34:05.445Z,33
2019-03-01T12:35:07.592Z,33
2019-03-01T12:36:09.696Z,32
2019-03-01T12:37:11.820Z,31
2019-03-01T12:38:13.949Z,31
2019-03-01T12:39:16.057Z,31
2019-03-01T12:40:18.197Z,31
2019-03-01T12:41:20.320Z,30
2019-03-01T12:42:22.438Z,29
2019-03-01T12:43:24.562Z,28
2019-03-01T12:44:26.692Z,27
2019-03-01T12:45:28.798Z,26
2019-03-01T12:46:30.931Z,25
2019-03-01T12:47:33.064Z,26
2019-03-01T12:48:35.194Z,25
2019-03-01T12:49:37.302Z,25
2019-03-01T12:50:39.422Z,25
2019-03-01T12:51:41.541Z,25
2019-03-01T12:52:44.016Z,26
2019-03-01T12:53:46.998Z,26
2019-03-01T12:54:49.533Z,26
2019-03-01T12:55:51.935Z,27
2019-03-01T12:56:54.033Z,27
2019-03-01T12:57:56.171Z,28
2019-03-01T12:58:58.301Z,28
2019-03-01T13:00:00.559Z,27
2019-03-01T13:01:02.687Z,26
2019-03-01T13:02:04.814Z,26
2019-03-01T13:03:11.678Z,25
2019-03-01T13:04:20.364Z,24
2019-03-01T13:05:30.573Z,24
2019-03-01T13:06:40.394Z,24
2019-03-01T13:07:43.478Z,24
2019-03-01T13:08:53.319Z,24
2019-03-01T13:09:55.413Z,23
2019-03-01T13:10:57.585Z,23
2019-03-01T13:11:59.721Z,24
2019-03-01T13:13:09.837Z,26
2019-03-01T13:14:11.971Z,26
2019-03-01T13:15:15.710Z,25
2019-03-01T13:16:17.824Z,23
2019-03-01T13:17:19.928Z,23
2019-03-01T13:18:22.059Z,22
2019-03-01T13:19:27.949Z,21
2019-03-01T13:20:38.463Z,21
2019-03-01T13:21:40.598Z,21
2019-03-01T13:22:42.708Z,21
2019-03-01T13:23:47.145Z,21
2019-03-01T13:24:55.094Z,21
2019-03-01T13:25:57.226Z,20
2019-03-01T13:26:59.332Z,20
2019-03-01T13:28:01.747Z,19
2019-03-01T13:29:03.894Z,18
2019-03-01T13:30:06.294Z,18
2019-03-01T13:31:13.249Z,19
2019-03-01T13:32:15.383Z,21
2019-03-01T13:33:17.501Z,22
2019-03-01T13:34:19.607Z,22
2019-03-01T13:35:28.485Z,23
2019-03-01T13:36:30.617Z,24
2019-03-01T13:37:32.736Z,23
2019-03-01T13:38:36.588Z,23
2019-03-01T13:39:38.995Z,21
2019-03-01T13:40:41.103Z,21
2019-03-01T13:41:43.221Z,21
2019-03-01T13:42:52.982Z,21
2019-03-01T13:43:55.090Z,21
2019-03-01T13:44:57.208Z,22
2019-03-01T13:46:01.374Z,22
2019-03-01T13:47:10.403Z,22
2019-03-01T13:48:12.534Z,22
2019-03-01T13:49:15.029Z,21
2019-03-01T13:50:17.161Z,20
2019-03-01T13:51:19.600Z,20
2019-03-01T13:52:22.034Z,20
2019-03-01T13:53:24.143Z,21
2019-03-01T13:54:26.284Z,20
2019-03-01T13:55:29.055Z,20
2019-03-01T13:56:37.698Z,20
2019-03-01T13:57:40.125Z,19
2019-03-01T13:58:42.253Z,18
2019-03-01T13:59:45.387Z,17
2019-03-01T14:00:50.729Z,17
2019-03-01T14:01:52.900Z,16
2019-03-01T14:02:55.013Z,15
2019-03-01T14:04:04.468Z,15
2019-03-01T14:05:06.607Z,15
2019-03-01T14:06:08.724Z,16
2019-03-01T14:07:10.845Z,16
2019-03-01T14:08:12.959Z,17
2019-03-01T14:09:15.098Z,16
2019-03-01T14:10:17.658Z,16
2019-03-01T14:11:24.655Z,16
2019-03-01T14:12:26.798Z,16
2019-03-01T14:13:30.631Z,15
2019-03-01T14:14:33.026Z,15
2019-03-01T14:15:40.847Z,14
2019-03-01T14:16:43.288Z,15
2019-03-01T14:17:45.670Z,15
2019-03-01T14:18:47.796Z,14
2019-03-01T14:19:49.935Z,14
2019-03-01T14:20:59.626Z,13
2019-03-01T14:22:10.307Z,14
2019-03-01T14:23:14.286Z,14
2019-03-01T14:24:16.412Z,14
2019-03-01T14:25:18.549Z,13
2019-03-01T14:26:21.032Z,13
2019-03-01T14:27:23.145Z,13
2019-03-01T14:28:25.281Z,13
2019-03-01T14:29:27.997Z,13
2019-03-01T14:30:34.855Z,13
2019-03-01T14:31:42.914Z,13
2019-03-01T14:32:45.168Z,13
2019-03-01T14:33:47.589Z,12
2019-03-01T14:34:50.073Z,12
2019-03-01T14:35:52.195Z,13
2019-03-01T14:36:54.303Z,13
2019-03-01T14:37:57.612Z,13
2019-03-01T14:38:59.742Z,13
2019-03-01T14:40:01.856Z,13
2019-03-01T14:41:03.980Z,13
2019-03-01T14:42:13.189Z,13
2019-03-01T14:43:15.306Z,13
2019-03-01T14:44:17.406Z,13
2019-03-01T14:45:19.530Z,13
2019-03-01T14:46:23.246Z,13
2019-03-01T14:47:25.371Z,13
2019-03-01T14:48:27.794Z,13
2019-03-01T14:49:29.944Z,12
2019-03-01T14:50:36.604Z,13
2019-03-01T14:51:39.426Z,13
2019-03-01T14:52:41.821Z,13
2019-03-01T14:53:43.947Z,13
2019-03-01T14:54:47.068Z,13
2019-03-01T14:55:49.180Z,13
2019-03-01T14:56:51.304Z,13
2019-03-01T14:57:53.421Z,13
2019-03-01T14:59:00.717Z,13
2019-03-01T15:00:02.862Z,12
2019-03-01T15:01:05.030Z,12
2019-03-01T15:02:07.440Z,13
2019-03-01T15:03:17.985Z,12
2019-03-01T15:04:20.120Z,12
2019-03-01T15:05:22.230Z,12
2019-03-01T15:06:24.394Z,12
2019-03-01T15:07:32.525Z,12
2019-03-01T15:08:34.966Z,12
2019-03-01T15:09:37.068Z,12
2019-03-01T15:10:39.472Z,10
2019-03-01T15:11:46.301Z,10